sensor_id;sensor_type;location;lat;lon;timestamp;pressure;altitude;pressure_sealevel;temperature;humidity
44131;BME280;29792;48.726;9.248;2023-05-28T00:00:48;97062.03;;;17.05;49.34
44131;BME280;29792;48.726;9.248;2023-05-28T00:03:14;97057.53;;;16.99;49.26
44131;BME280;29792;48.726;9.248;2023-05-28T00:05:43;97071.13;;;16.93;49.59
44131;BME280;29792;48.726;9.248;2023-05-28T00:08:08;97068.38;;;16.86;49.79
44131;BME280;29792;48.726;9.248;2023-05-28T00:10:34;97067.88;;;16.83;50.09
44131;BME280;29792;48.726;9.248;2023-05-28T00:12:59;97060.91;;;16.75;50.43
44131;BME280;29792;48.726;9.248;2023-05-28T00:15:25;97061.38;;;16.70;50.57
44131;BME280;29792;48.726;9.248;2023-05-28T00:17:50;97060.25;;;16.65;50.60
44131;BME280;29792;48.726;9.248;2023-05-28T00:20:18;97054.88;;;16.58;50.85
44131;BME280;29792;48.726;9.248;2023-05-28T00:22:43;97057.94;;;16.54;50.78
44131;BME280;29792;48.726;9.248;2023-05-28T00:25:09;97049.81;;;16.49;50.95
44131;BME280;29792;48.726;9.248;2023-05-28T00:27:36;97046.91;;;16.44;51.58
44131;BME280;29792;48.726;9.248;2023-05-28T00:30:02;97042.38;;;16.37;51.46
44131;BME280;29792;48.726;9.248;2023-05-28T00:32:27;97046.41;;;16.32;51.71
44131;BME280;29792;48.726;9.248;2023-05-28T00:34:52;97042.53;;;16.28;51.69
44131;BME280;29792;48.726;9.248;2023-05-28T00:37:18;97039.28;;;16.26;51.84
44131;BME280;29792;48.726;9.248;2023-05-28T00:39:43;97038.63;;;16.24;51.81
44131;BME280;29792;48.726;9.248;2023-05-28T00:42:08;97037.81;;;16.23;51.72
44131;BME280;29792;48.726;9.248;2023-05-28T00:44:36;97036.84;;;16.24;51.16
44131;BME280;29792;48.726;9.248;2023-05-28T00:47:02;97031.00;;;16.22;51.12
44131;BME280;29792;48.726;9.248;2023-05-28T00:49:27;97030.19;;;16.22;51.57
44131;BME280;29792;48.726;9.248;2023-05-28T00:51:54;97024.41;;;16.20;51.67
44131;BME280;29792;48.726;9.248;2023-05-28T00:54:22;97024.84;;;16.15;51.56
44131;BME280;29792;48.726;9.248;2023-05-28T00:56:48;97033.53;;;16.06;51.98
44131;BME280;29792;48.726;9.248;2023-05-28T00:59:13;97030.78;;;15.99;52.53
44131;BME280;29792;48.726;9.248;2023-05-28T01:01:39;97024.47;;;15.94;52.82
44131;BME280;29792;48.726;9.248;2023-05-28T01:04:04;97027.84;;;15.86;52.80
44131;BME280;29792;48.726;9.248;2023-05-28T01:06:30;97018.13;;;15.80;53.06
44131;BME280;29792;48.726;9.248;2023-05-28T01:08:56;97017.91;;;15.74;53.14
44131;BME280;29792;48.726;9.248;2023-05-28T01:11:23;97025.47;;;15.67;53.16
44131;BME280;29792;48.726;9.248;2023-05-28T01:13:48;97019.31;;;15.60;53.59
44131;BME280;29792;48.726;9.248;2023-05-28T01:16:14;97018.28;;;15.53;53.97
44131;BME280;29792;48.726;9.248;2023-05-28T01:18:40;97019.53;;;15.49;54.13
44131;BME280;29792;48.726;9.248;2023-05-28T01:21:07;97020.00;;;15.44;53.91
44131;BME280;29792;48.726;9.248;2023-05-28T01:23:41;97029.03;;;15.40;54.17
44131;BME280;29792;48.726;9.248;2023-05-28T01:26:12;97022.38;;;15.38;54.22
44131;BME280;29792;48.726;9.248;2023-05-28T01:28:38;97018.31;;;15.35;54.31
44131;BME280;29792;48.726;9.248;2023-05-28T01:31:09;97018.66;;;15.32;54.56
44131;BME280;29792;48.726;9.248;2023-05-28T01:33:35;97018.13;;;15.28;54.83
44131;BME280;29792;48.726;9.248;2023-05-28T01:36:01;97012.44;;;15.25;54.60
44131;BME280;29792;48.726;9.248;2023-05-28T01:38:28;97012.91;;;15.20;55.11
44131;BME280;29792;48.726;9.248;2023-05-28T01:40:53;97010.63;;;15.17;55.05
44131;BME280;29792;48.726;9.248;2023-05-28T01:43:20;97013.53;;;15.14;55.38
44131;BME280;29792;48.726;9.248;2023-05-28T01:45:46;97012.88;;;15.12;55.49
44131;BME280;29792;48.726;9.248;2023-05-28T01:48:13;97020.25;;;15.07;55.58
44131;BME280;29792;48.726;9.248;2023-05-28T01:50:38;97013.28;;;15.00;55.71
44131;BME280;29792;48.726;9.248;2023-05-28T01:53:03;97008.69;;;14.94;56.01
44131;BME280;29792;48.726;9.248;2023-05-28T01:55:29;97008.34;;;14.88;56.49
44131;BME280;29792;48.726;9.248;2023-05-28T01:57:54;97012.16;;;14.84;56.50
44131;BME280;29792;48.726;9.248;2023-05-28T02:00:21;97013.44;;;14.80;56.25
44131;BME280;29792;48.726;9.248;2023-05-28T02:02:47;97004.69;;;14.73;56.85
44131;BME280;29792;48.726;9.248;2023-05-28T02:05:12;97008.34;;;14.71;56.70
44131;BME280;29792;48.726;9.248;2023-05-28T02:07:38;97001.88;;;14.67;56.84
44131;BME280;29792;48.726;9.248;2023-05-28T02:10:03;97002.97;;;14.64;57.17
44131;BME280;29792;48.726;9.248;2023-05-28T02:12:29;97003.13;;;14.63;57.26
44131;BME280;29792;48.726;9.248;2023-05-28T02:14:54;97000.06;;;14.59;57.07
44131;BME280;29792;48.726;9.248;2023-05-28T02:17:19;96994.09;;;14.59;57.92
44131;BME280;29792;48.726;9.248;2023-05-28T02:19:45;96994.88;;;14.59;57.71
44131;BME280;29792;48.726;9.248;2023-05-28T02:22:10;96993.41;;;14.57;57.85
44131;BME280;29792;48.726;9.248;2023-05-28T02:24:40;96986.78;;;14.54;58.04
44131;BME280;29792;48.726;9.248;2023-05-28T02:27:06;96996.41;;;14.52;58.05
44131;BME280;29792;48.726;9.248;2023-05-28T02:29:32;96987.88;;;14.51;58.85
44131;BME280;29792;48.726;9.248;2023-05-28T02:31:59;96986.56;;;14.47;58.57
44131;BME280;29792;48.726;9.248;2023-05-28T02:34:24;96992.81;;;14.45;58.79
44131;BME280;29792;48.726;9.248;2023-05-28T02:36:49;96987.78;;;14.43;58.95
44131;BME280;29792;48.726;9.248;2023-05-28T02:39:17;96986.34;;;14.41;59.00
44131;BME280;29792;48.726;9.248;2023-05-28T02:41:43;96988.25;;;14.39;59.60
44131;BME280;29792;48.726;9.248;2023-05-28T02:44:08;96984.97;;;14.37;59.78
44131;BME280;29792;48.726;9.248;2023-05-28T02:46:33;96980.78;;;14.36;60.13
44131;BME280;29792;48.726;9.248;2023-05-28T02:48:58;96982.53;;;14.35;60.75
44131;BME280;29792;48.726;9.248;2023-05-28T02:51:24;96989.31;;;14.36;60.69
44131;BME280;29792;48.726;9.248;2023-05-28T02:53:49;96986.09;;;14.34;60.01
44131;BME280;29792;48.726;9.248;2023-05-28T02:56:14;96994.78;;;14.33;60.82
44131;BME280;29792;48.726;9.248;2023-05-28T02:58:40;96988.28;;;14.29;60.24
44131;BME280;29792;48.726;9.248;2023-05-28T03:01:05;96995.34;;;14.27;60.87
44131;BME280;29792;48.726;9.248;2023-05-28T03:03:31;97004.06;;;14.26;61.04
44131;BME280;29792;48.726;9.248;2023-05-28T03:05:56;96998.91;;;14.26;61.05
44131;BME280;29792;48.726;9.248;2023-05-28T03:08:22;96999.84;;;14.25;61.21
44131;BME280;29792;48.726;9.248;2023-05-28T03:10:47;97005.97;;;14.24;61.71
44131;BME280;29792;48.726;9.248;2023-05-28T03:13:12;97002.44;;;14.25;61.44
44131;BME280;29792;48.726;9.248;2023-05-28T03:15:38;97002.72;;;14.22;61.66
44131;BME280;29792;48.726;9.248;2023-05-28T03:18:03;97008.13;;;14.19;61.50
44131;BME280;29792;48.726;9.248;2023-05-28T03:20:31;97001.66;;;14.15;61.04
44131;BME280;29792;48.726;9.248;2023-05-28T03:22:57;97002.75;;;14.12;61.22
44131;BME280;29792;48.726;9.248;2023-05-28T03:25:23;97010.25;;;14.06;61.20
44131;BME280;29792;48.726;9.248;2023-05-28T03:27:49;97006.38;;;14.02;61.29
44131;BME280;29792;48.726;9.248;2023-05-28T03:30:15;97002.44;;;13.98;61.41
44131;BME280;29792;48.726;9.248;2023-05-28T03:32:40;97007.75;;;13.96;62.00
44131;BME280;29792;48.726;9.248;2023-05-28T03:35:06;97008.84;;;13.94;61.69
44131;BME280;29792;48.726;9.248;2023-05-28T03:37:31;97005.59;;;13.92;62.03
44131;BME280;29792;48.726;9.248;2023-05-28T03:39:57;97007.50;;;13.90;61.90
44131;BME280;29792;48.726;9.248;2023-05-28T03:42:22;97000.72;;;13.89;62.21
44131;BME280;29792;48.726;9.248;2023-05-28T03:44:47;97006.69;;;13.89;61.93
44131;BME280;29792;48.726;9.248;2023-05-28T03:47:12;97005.22;;;13.87;62.26
44131;BME280;29792;48.726;9.248;2023-05-28T03:49:38;97005.38;;;13.85;62.32
44131;BME280;29792;48.726;9.248;2023-05-28T03:52:04;97004.84;;;13.82;61.66
44131;BME280;29792;48.726;9.248;2023-05-28T03:54:30;97005.91;;;13.79;62.44
44131;BME280;29792;48.726;9.248;2023-05-28T03:56:56;97002.03;;;13.75;62.24
44131;BME280;29792;48.726;9.248;2023-05-28T03:59:21;97004.59;;;13.75;62.48
44131;BME280;29792;48.726;9.248;2023-05-28T04:01:47;96999.72;;;13.72;62.26
44131;BME280;29792;48.726;9.248;2023-05-28T04:04:12;97000.53;;;13.72;62.71
44131;BME280;29792;48.726;9.248;2023-05-28T04:06:37;96997.97;;;13.72;62.50
44131;BME280;29792;48.726;9.248;2023-05-28T04:09:03;97005.00;;;13.70;62.50
44131;BME280;29792;48.726;9.248;2023-05-28T04:11:28;96999.72;;;13.72;63.22
44131;BME280;29792;48.726;9.248;2023-05-28T04:13:55;96995.38;;;13.72;63.09
44131;BME280;29792;48.726;9.248;2023-05-28T04:16:21;97003.13;;;13.72;63.45
44131;BME280;29792;48.726;9.248;2023-05-28T04:18:48;97005.00;;;13.70;63.79
44131;BME280;29792;48.726;9.248;2023-05-28T04:21:14;97003.13;;;13.72;65.80
44131;BME280;29792;48.726;9.248;2023-05-28T04:23:39;97000.53;;;13.72;64.95
44131;BME280;29792;48.726;9.248;2023-05-28T04:26:04;96995.53;;;13.71;65.28
44131;BME280;29792;48.726;9.248;2023-05-28T04:28:33;97004.22;;;13.70;64.60
44131;BME280;29792;48.726;9.248;2023-05-28T04:30:59;96998.09;;;13.71;64.10
44131;BME280;29792;48.726;9.248;2023-05-28T04:33:26;97007.59;;;13.70;65.17
44131;BME280;29792;48.726;9.248;2023-05-28T04:35:54;97001.34;;;13.73;65.13
44131;BME280;29792;48.726;9.248;2023-05-28T04:38:19;97012.09;;;13.68;64.99
44131;BME280;29792;48.726;9.248;2023-05-28T04:40:45;97012.50;;;13.64;66.12
44131;BME280;29792;48.726;9.248;2023-05-28T04:43:10;97012.00;;;13.60;67.05
44131;BME280;29792;48.726;9.248;2023-05-28T04:45:36;97007.78;;;13.59;67.30
44131;BME280;29792;48.726;9.248;2023-05-28T04:48:02;97014.69;;;13.59;67.43
44131;BME280;29792;48.726;9.248;2023-05-28T04:50:29;97012.94;;;13.59;67.83
44131;BME280;29792;48.726;9.248;2023-05-28T04:52:55;97012.94;;;13.59;68.12
44131;BME280;29792;48.726;9.248;2023-05-28T04:55:20;97016.31;;;13.60;68.64
44131;BME280;29792;48.726;9.248;2023-05-28T04:57:45;97019.56;;;13.62;68.58
44131;BME280;29792;48.726;9.248;2023-05-28T05:00:11;97029.88;;;13.62;68.79
44131;BME280;29792;48.726;9.248;2023-05-28T05:02:39;97022.16;;;13.62;69.34
44131;BME280;29792;48.726;9.248;2023-05-28T05:05:08;97022.56;;;13.57;69.09
44131;BME280;29792;48.726;9.248;2023-05-28T05:07:37;97025.94;;;13.58;69.46
44131;BME280;29792;48.726;9.248;2023-05-28T05:10:09;97022.81;;;13.54;70.40
44131;BME280;29792;48.726;9.248;2023-05-28T05:12:35;97026.22;;;13.55;70.64
44131;BME280;29792;48.726;9.248;2023-05-28T05:15:01;97020.25;;;13.54;71.42
44131;BME280;29792;48.726;9.248;2023-05-28T05:17:27;97024.44;;;13.55;71.70
44131;BME280;29792;48.726;9.248;2023-05-28T05:19:52;97018.34;;;13.56;71.84
44131;BME280;29792;48.726;9.248;2023-05-28T05:22:18;97023.91;;;13.61;72.68
44131;BME280;29792;48.726;9.248;2023-05-28T05:24:44;97032.13;;;13.65;72.76
44131;BME280;29792;48.726;9.248;2023-05-28T05:27:10;97025.22;;;13.65;72.72
44131;BME280;29792;48.726;9.248;2023-05-28T05:29:35;97021.97;;;13.63;72.30
44131;BME280;29792;48.726;9.248;2023-05-28T05:32:00;97027.69;;;13.57;72.31
44131;BME280;29792;48.726;9.248;2023-05-28T05:34:26;97025.56;;;13.53;72.25
44131;BME280;29792;48.726;9.248;2023-05-28T05:36:51;97022.44;;;13.49;72.01
44131;BME280;29792;48.726;9.248;2023-05-28T05:39:16;97024.75;;;13.52;71.47
44131;BME280;29792;48.726;9.248;2023-05-28T05:41:41;97022.81;;;13.54;72.27
44131;BME280;29792;48.726;9.248;2023-05-28T05:44:07;97029.19;;;13.60;72.05
44131;BME280;29792;48.726;9.248;2023-05-28T05:46:32;97018.47;;;13.64;71.49
44131;BME280;29792;48.726;9.248;2023-05-28T05:48:57;97021.28;;;13.71;71.50
44131;BME280;29792;48.726;9.248;2023-05-28T05:51:22;97017.84;;;13.80;71.76
44131;BME280;29792;48.726;9.248;2023-05-28T05:53:48;97019.72;;;13.88;71.66
44131;BME280;29792;48.726;9.248;2023-05-28T05:56:13;97024.94;;;13.96;71.61
44131;BME280;29792;48.726;9.248;2023-05-28T05:58:38;97019.91;;;14.04;72.18
44131;BME280;29792;48.726;9.248;2023-05-28T06:01:04;97021.59;;;14.13;71.94
44131;BME280;29792;48.726;9.248;2023-05-28T06:03:30;97023.47;;;14.21;72.51
44131;BME280;29792;48.726;9.248;2023-05-28T06:05:56;97023.25;;;14.32;72.60
44131;BME280;29792;48.726;9.248;2023-05-28T06:08:21;97030.16;;;14.41;72.20
44131;BME280;29792;48.726;9.248;2023-05-28T06:10:47;97029.44;;;14.48;72.24
44131;BME280;29792;48.726;9.248;2023-05-28T06:13:16;97028.53;;;14.58;72.19
44131;BME280;29792;48.726;9.248;2023-05-28T06:15:41;97032.00;;;14.66;72.34
44131;BME280;29792;48.726;9.248;2023-05-28T06:18:07;97025.97;;;14.75;72.38
44131;BME280;29792;48.726;9.248;2023-05-28T06:20:32;97025.59;;;14.88;72.61
44131;BME280;29792;48.726;9.248;2023-05-28T06:22:58;97027.94;;;14.99;72.40
44131;BME280;29792;48.726;9.248;2023-05-28T06:25:23;97031.75;;;15.13;71.52
44131;BME280;29792;48.726;9.248;2023-05-28T06:27:49;97031.66;;;15.22;70.13
44131;BME280;29792;48.726;9.248;2023-05-28T06:30:15;97036.41;;;15.35;69.33
44131;BME280;29792;48.726;9.248;2023-05-28T06:32:41;97031.00;;;15.46;68.45
44131;BME280;29792;48.726;9.248;2023-05-28T06:35:07;97033.31;;;15.57;68.53
44131;BME280;29792;48.726;9.248;2023-05-28T06:37:33;97038.09;;;15.70;68.13
44131;BME280;29792;48.726;9.248;2023-05-28T06:39:58;97035.22;;;15.81;67.05
44131;BME280;29792;48.726;9.248;2023-05-28T06:42:24;97034.00;;;15.93;66.11
44131;BME280;29792;48.726;9.248;2023-05-28T06:44:49;97036.78;;;16.08;65.91
44131;BME280;29792;48.726;9.248;2023-05-28T06:47:14;97041.53;;;16.21;64.58
44131;BME280;29792;48.726;9.248;2023-05-28T06:49:39;97043.00;;;16.31;64.97
44131;BME280;29792;48.726;9.248;2023-05-28T06:52:06;97044.00;;;16.47;65.21
44131;BME280;29792;48.726;9.248;2023-05-28T06:54:31;97045.19;;;16.60;64.32
44131;BME280;29792;48.726;9.248;2023-05-28T06:56:56;97043.44;;;16.77;64.06
44131;BME280;29792;48.726;9.248;2023-05-28T06:59:21;97038.59;;;16.98;63.58
44131;BME280;29792;48.726;9.248;2023-05-28T07:01:50;97036.50;;;17.18;62.41
44131;BME280;29792;48.726;9.248;2023-05-28T07:04:15;97029.81;;;17.40;62.05
44131;BME280;29792;48.726;9.248;2023-05-28T07:06:40;97030.78;;;17.63;62.63
44131;BME280;29792;48.726;9.248;2023-05-28T07:09:06;97039.78;;;17.83;61.26
44131;BME280;29792;48.726;9.248;2023-05-28T07:11:31;97032.88;;;18.07;61.34
44131;BME280;29792;48.726;9.248;2023-05-28T07:13:56;97033.25;;;18.26;60.61
44131;BME280;29792;48.726;9.248;2023-05-28T07:16:22;97040.47;;;18.47;60.03
44131;BME280;29792;48.726;9.248;2023-05-28T07:18:47;97041.31;;;18.71;58.80
44131;BME280;29792;48.726;9.248;2023-05-28T07:21:13;97042.91;;;18.94;58.90
44131;BME280;29792;48.726;9.248;2023-05-28T07:23:38;97037.53;;;19.19;58.80
44131;BME280;29792;48.726;9.248;2023-05-28T07:26:04;97034.31;;;19.46;58.81
44131;BME280;29792;48.726;9.248;2023-05-28T07:28:30;97040.75;;;19.73;57.63
44131;BME280;29792;48.726;9.248;2023-05-28T07:30:55;97051.25;;;19.94;56.56
44131;BME280;29792;48.726;9.248;2023-05-28T07:33:21;97044.31;;;20.16;56.21
44131;BME280;29792;48.726;9.248;2023-05-28T07:35:46;97051.19;;;20.38;55.85
44131;BME280;29792;48.726;9.248;2023-05-28T07:38:11;97056.06;;;20.63;55.49
44131;BME280;29792;48.726;9.248;2023-05-28T07:40:39;97050.25;;;20.82;53.95
44131;BME280;29792;48.726;9.248;2023-05-28T07:43:04;97048.81;;;21.01;53.45
44131;BME280;29792;48.726;9.248;2023-05-28T07:45:29;97050.19;;;21.18;52.05
44131;BME280;29792;48.726;9.248;2023-05-28T07:47:55;97052.13;;;21.30;51.99
44131;BME280;29792;48.726;9.248;2023-05-28T07:50:20;97047.34;;;21.41;52.00
44131;BME280;29792;48.726;9.248;2023-05-28T07:52:45;97047.69;;;21.59;52.94
44131;BME280;29792;48.726;9.248;2023-05-28T07:55:12;97044.59;;;21.77;51.55
44131;BME280;29792;48.726;9.248;2023-05-28T07:57:37;97047.69;;;21.93;50.46
44131;BME280;29792;48.726;9.248;2023-05-28T08:00:03;97043.97;;;22.02;50.78
44131;BME280;29792;48.726;9.248;2023-05-28T08:02:35;97045.16;;;22.06;48.45
44131;BME280;29792;48.726;9.248;2023-05-28T08:05:00;97043.19;;;22.08;49.70
44131;BME280;29792;48.726;9.248;2023-05-28T08:07:27;97043.22;;;22.22;49.91
44131;BME280;29792;48.726;9.248;2023-05-28T08:09:53;97034.47;;;22.36;49.53
44131;BME280;29792;48.726;9.248;2023-05-28T08:12:18;97036.91;;;22.44;49.03
44131;BME280;29792;48.726;9.248;2023-05-28T08:14:43;97051.38;;;22.53;48.14
44131;BME280;29792;48.726;9.248;2023-05-28T08:17:09;97050.97;;;22.63;47.59
44131;BME280;29792;48.726;9.248;2023-05-28T08:19:34;97042.16;;;22.70;47.52
44131;BME280;29792;48.726;9.248;2023-05-28T08:22:00;97045.84;;;22.76;47.17
44131;BME280;29792;48.726;9.248;2023-05-28T08:24:25;97042.00;;;22.78;46.57
44131;BME280;29792;48.726;9.248;2023-05-28T08:26:50;97045.66;;;22.91;47.21
44131;BME280;29792;48.726;9.248;2023-05-28T08:29:16;97046.47;;;22.98;46.48
44131;BME280;29792;48.726;9.248;2023-05-28T08:31:41;97035.19;;;23.04;46.18
44131;BME280;29792;48.726;9.248;2023-05-28T08:34:06;97036.63;;;23.13;46.30
44131;BME280;29792;48.726;9.248;2023-05-28T08:36:31;97033.78;;;23.21;46.64
44131;BME280;29792;48.726;9.248;2023-05-28T08:38:57;97024.56;;;23.32;46.75
44131;BME280;29792;48.726;9.248;2023-05-28T08:41:23;97024.72;;;23.37;46.29
44131;BME280;29792;48.726;9.248;2023-05-28T08:43:48;97020.53;;;23.42;46.05
44131;BME280;29792;48.726;9.248;2023-05-28T08:46:15;97017.50;;;23.52;46.50
44131;BME280;29792;48.726;9.248;2023-05-28T08:48:41;97013.88;;;23.59;45.39
44131;BME280;29792;48.726;9.248;2023-05-28T08:51:07;97012.25;;;23.65;46.26
44131;BME280;29792;48.726;9.248;2023-05-28T08:53:39;97009.00;;;23.76;45.72
44131;BME280;29792;48.726;9.248;2023-05-28T08:56:08;97012.78;;;23.87;45.94
44131;BME280;29792;48.726;9.248;2023-05-28T08:58:34;97006.31;;;23.96;46.24
44131;BME280;29792;48.726;9.248;2023-05-28T09:01:05;97011.13;;;24.06;45.63
44131;BME280;29792;48.726;9.248;2023-05-28T09:03:34;96998.22;;;24.11;44.96
44131;BME280;29792;48.726;9.248;2023-05-28T09:06:01;97004.22;;;24.18;44.93
44131;BME280;29792;48.726;9.248;2023-05-28T09:08:27;97006.25;;;24.22;45.74
44131;BME280;29792;48.726;9.248;2023-05-28T09:10:55;97003.81;;;24.27;45.67
44131;BME280;29792;48.726;9.248;2023-05-28T09:13:21;97001.38;;;24.26;44.64
44131;BME280;29792;48.726;9.248;2023-05-28T09:15:53;97001.19;;;24.27;46.93
44131;BME280;29792;48.726;9.248;2023-05-28T09:18:19;96994.09;;;24.34;46.13
44131;BME280;29792;48.726;9.248;2023-05-28T09:20:45;96992.47;;;24.40;46.34
44131;BME280;29792;48.726;9.248;2023-05-28T09:23:10;96988.00;;;24.47;47.30
44131;BME280;29792;48.726;9.248;2023-05-28T09:25:36;96986.50;;;24.58;46.26
44131;BME280;29792;48.726;9.248;2023-05-28T09:28:03;97004.97;;;24.69;46.46
44131;BME280;29792;48.726;9.248;2023-05-28T09:30:28;96997.25;;;24.75;45.80
44131;BME280;29792;48.726;9.248;2023-05-28T09:33:05;96991.41;;;24.79;44.17
44131;BME280;29792;48.726;9.248;2023-05-28T09:35:31;96991.41;;;24.79;45.58
44131;BME280;29792;48.726;9.248;2023-05-28T09:38:05;96994.59;;;24.81;44.80
44131;BME280;29792;48.726;9.248;2023-05-28T09:40:45;96995.78;;;24.85;46.20
44131;BME280;29792;48.726;9.248;2023-05-28T09:43:11;96994.56;;;24.88;45.08
44131;BME280;29792;48.726;9.248;2023-05-28T09:45:37;96992.78;;;24.82;45.28
44131;BME280;29792;48.726;9.248;2023-05-28T09:48:03;96993.69;;;24.69;45.77
44131;BME280;29792;48.726;9.248;2023-05-28T09:50:29;96987.44;;;24.70;46.26
44131;BME280;29792;48.726;9.248;2023-05-28T09:52:58;96985.22;;;24.67;45.02
44131;BME280;29792;48.726;9.248;2023-05-28T09:55:26;96983.03;;;24.64;45.73
44131;BME280;29792;48.726;9.248;2023-05-28T10:00:35;96986.22;;;24.73;46.58
44131;BME280;29792;48.726;9.248;2023-05-28T10:03:22;96978.97;;;24.68;46.00
44131;BME280;29792;48.726;9.248;2023-05-28T10:05:56;96973.13;;;24.66;46.54
44131;BME280;29792;48.726;9.248;2023-05-28T10:08:24;96978.16;;;24.67;46.01
44131;BME280;29792;48.726;9.248;2023-05-28T10:10:54;96982.34;;;24.75;46.38
44131;BME280;29792;48.726;9.248;2023-05-28T10:13:21;96973.47;;;24.76;45.10
44131;BME280;29792;48.726;9.248;2023-05-28T10:15:48;96979.31;;;24.78;44.41
44131;BME280;29792;48.726;9.248;2023-05-28T10:18:13;96981.75;;;24.73;44.89
44131;BME280;29792;48.726;9.248;2023-05-28T10:20:42;96971.53;;;24.65;46.04
44131;BME280;29792;48.726;9.248;2023-05-28T10:23:08;96971.13;;;24.68;47.01
44131;BME280;29792;48.726;9.248;2023-05-28T10:25:34;96968.03;;;24.78;45.00
44131;BME280;29792;48.726;9.248;2023-05-28T10:28:00;96967.56;;;24.87;46.51
44131;BME280;29792;48.726;9.248;2023-05-28T10:30:38;96976.34;;;24.99;44.79
44131;BME280;29792;48.726;9.248;2023-05-28T10:33:29;96976.88;;;25.08;44.17
44131;BME280;29792;48.726;9.248;2023-05-28T10:35:57;96973.38;;;25.14;44.16
44131;BME280;29792;48.726;9.248;2023-05-28T10:38:24;96978.88;;;25.13;44.22
44131;BME280;29792;48.726;9.248;2023-05-28T10:40:50;96979.00;;;25.18;44.31
44131;BME280;29792;48.726;9.248;2023-05-28T10:46:03;96977.44;;;25.35;42.92
44131;BME280;29792;48.726;9.248;2023-05-28T10:48:32;96969.78;;;25.33;41.70
44131;BME280;29792;48.726;9.248;2023-05-28T10:50:57;96970.22;;;25.30;42.41
44131;BME280;29792;48.726;9.248;2023-05-28T10:53:26;96968.78;;;25.34;44.32
44131;BME280;29792;48.726;9.248;2023-05-28T10:55:54;96972.19;;;25.35;41.33
44131;BME280;29792;48.726;9.248;2023-05-28T11:00:53;96961.63;;;25.41;43.06
44131;BME280;29792;48.726;9.248;2023-05-28T11:03:43;96964.19;;;25.48;43.20
44131;BME280;29792;48.726;9.248;2023-05-28T11:06:10;96968.56;;;25.54;43.41
44131;BME280;29792;48.726;9.248;2023-05-28T11:08:41;96965.09;;;25.60;43.15
44131;BME280;29792;48.726;9.248;2023-05-28T11:11:07;96954.31;;;25.68;42.34
44131;BME280;29792;48.726;9.248;2023-05-28T11:13:33;96956.28;;;25.73;42.53
44131;BME280;29792;48.726;9.248;2023-05-28T11:16:07;96963.03;;;25.80;42.36
44131;BME280;29792;48.726;9.248;2023-05-28T11:18:32;96950.09;;;25.86;42.61
44131;BME280;29792;48.726;9.248;2023-05-28T11:21:05;96943.16;;;25.73;40.49
44131;BME280;29792;48.726;9.248;2023-05-28T11:23:33;96950.72;;;25.63;41.05
44131;BME280;29792;48.726;9.248;2023-05-28T11:25:59;96945.31;;;25.58;40.36
44131;BME280;29792;48.726;9.248;2023-05-28T11:28:24;96942.91;;;25.56;40.64
44131;BME280;29792;48.726;9.248;2023-05-28T11:30:51;96938.66;;;25.62;39.77
44131;BME280;29792;48.726;9.248;2023-05-28T11:33:17;96936.75;;;25.69;40.50
44131;BME280;29792;48.726;9.248;2023-05-28T11:35:42;96940.53;;;25.73;39.88
44131;BME280;29792;48.726;9.248;2023-05-28T11:38:07;96932.00;;;25.77;38.45
44131;BME280;29792;48.726;9.248;2023-05-28T11:40:33;96942.63;;;25.82;39.46
44131;BME280;29792;48.726;9.248;2023-05-28T11:43:00;96937.97;;;25.84;38.82
44131;BME280;29792;48.726;9.248;2023-05-28T11:45:26;96939.72;;;25.91;38.46
44131;BME280;29792;48.726;9.248;2023-05-28T11:47:51;96933.78;;;25.95;38.71
44131;BME280;29792;48.726;9.248;2023-05-28T11:50:17;96940.22;;;25.99;39.47
44131;BME280;29792;48.726;9.248;2023-05-28T11:52:43;96935.53;;;26.01;37.24
44131;BME280;29792;48.726;9.248;2023-05-28T11:55:09;96936.78;;;25.99;38.14
44131;BME280;29792;48.726;9.248;2023-05-28T11:57:35;96928.47;;;26.02;38.91
44131;BME280;29792;48.726;9.248;2023-05-28T12:00:11;96934.44;;;26.09;37.92
44131;BME280;29792;48.726;9.248;2023-05-28T12:02:53;96932.34;;;26.11;38.20
44131;BME280;29792;48.726;9.248;2023-05-28T12:05:19;96932.28;;;26.17;38.53
44131;BME280;29792;48.726;9.248;2023-05-28T12:07:54;96932.00;;;26.26;36.65
44131;BME280;29792;48.726;9.248;2023-05-28T12:10:22;96936.56;;;26.30;36.88
44131;BME280;29792;48.726;9.248;2023-05-28T12:12:49;96925.63;;;26.33;37.09
44131;BME280;29792;48.726;9.248;2023-05-28T12:15:16;96928.75;;;26.42;37.31
44131;BME280;29792;48.726;9.248;2023-05-28T12:17:44;96931.84;;;26.50;37.20
44131;BME280;29792;48.726;9.248;2023-05-28T12:22:39;96935.41;;;26.56;36.78
44131;BME280;29792;48.726;9.248;2023-05-28T12:25:05;96929.69;;;26.59;36.73
44131;BME280;29792;48.726;9.248;2023-05-28T12:27:31;96932.66;;;26.63;36.45
44131;BME280;29792;48.726;9.248;2023-05-28T12:29:56;96931.53;;;26.70;37.49
44131;BME280;29792;48.726;9.248;2023-05-28T12:32:22;96929.25;;;26.74;36.45
44131;BME280;29792;48.726;9.248;2023-05-28T12:34:47;96923.84;;;26.69;35.52
44131;BME280;29792;48.726;9.248;2023-05-28T12:37:12;96917.25;;;26.66;34.89
44131;BME280;29792;48.726;9.248;2023-05-28T12:39:38;96917.69;;;26.63;34.48
44131;BME280;29792;48.726;9.248;2023-05-28T12:42:03;96921.13;;;26.64;34.59
44131;BME280;29792;48.726;9.248;2023-05-28T12:44:29;96913.22;;;26.64;33.74
44131;BME280;29792;48.726;9.248;2023-05-28T12:46:54;96921.13;;;26.64;33.52
44131;BME280;29792;48.726;9.248;2023-05-28T12:49:20;96906.97;;;26.65;35.36
44131;BME280;29792;48.726;9.248;2023-05-28T12:51:45;96909.38;;;26.66;34.20
44131;BME280;29792;48.726;9.248;2023-05-28T12:54:10;96906.25;;;26.69;34.81
44131;BME280;29792;48.726;9.248;2023-05-28T12:56:35;96904.22;;;26.71;34.15
44131;BME280;29792;48.726;9.248;2023-05-28T12:59:01;96906.03;;;26.71;33.76
44131;BME280;29792;48.726;9.248;2023-05-28T13:01:26;96902.75;;;26.75;35.02
44131;BME280;29792;48.726;9.248;2023-05-28T13:03:51;96897.59;;;26.80;34.80
44131;BME280;29792;48.726;9.248;2023-05-28T13:06:17;96898.50;;;26.86;34.40